Time;durP1;ratioP1;P1;durP2;ratioP2;P2;SDS_P1;SDS_P2;PMS_P1;PMS_P2;Temp;Humidity;BMP_temperature;BMP_pressure;BME280_temperature;BME280_humidity;BME280_pressure;Samples;Min_cycle;Max_cycle;Signal;HPM_P1;HPM_P2
2022/06/10 00:01:04;;;;;;;0.60;0.60;;;16.80;78.90;;;16.84;64.01;95051.41;4700642;30;20239;-78
2022/06/10 00:03:32;;;;;;;0.70;0.70;;;16.80;78.90;;;16.86;63.99;95049.34;4707687;30;20205;-78
2022/06/10 00:06:04;;;;;;;0.60;0.60;;;16.80;78.90;;;16.88;64.14;95052.56;4707969;30;20227;-78
2022/06/10 00:08:36;;;;;;;0.60;0.60;;;16.80;79.00;;;16.89;63.55;95052.31;4691744;30;20605;-79
2022/06/10 00:11:07;;;;;;;0.70;0.70;;;16.80;79.00;;;16.89;64.12;95056.84;4687988;30;20255;-78
2022/06/10 00:13:43;;;;;;;0.60;0.60;;;16.80;79.00;;;16.89;64.16;95048.88;4699783;30;20287;-78
2022/06/10 00:16:11;;;;;;;0.50;0.50;;;16.80;78.90;;;16.90;63.49;95061.91;4707535;30;20250;-78
2022/06/10 00:18:40;;;;;;;0.60;0.60;;;16.80;78.90;;;16.89;63.83;95056.84;4708230;30;20209;-80
2022/06/10 00:21:10;;;;;;;0.40;0.40;;;16.80;78.80;;;16.88;63.59;95058.69;4702113;30;20223;-78
2022/06/10 00:23:37;;;;;;;0.60;0.60;;;16.80;78.80;;;16.89;63.55;95068.22;4700409;30;20599;-78
2022/06/10 00:26:06;;;;;;;0.50;0.50;;;16.80;78.80;;;16.90;63.81;95064.53;4697567;30;20236;-77
2022/06/10 00:28:33;;;;;;;0.60;0.60;;;16.80;78.80;;;16.90;63.54;95069.06;4693127;30;20231;-78
2022/06/10 00:31:02;;;;;;;0.60;0.60;;;16.80;78.80;;;16.91;63.60;95071.47;4702750;30;20240;-78
2022/06/10 00:33:33;;;;;;;0.60;0.60;;;16.80;78.70;;;16.91;63.61;95070.66;4697887;30;20204;-78
2022/06/10 00:36:02;;;;;;;0.60;0.60;;;16.90;78.80;;;16.92;63.67;95074.97;4696612;30;20240;-79
2022/06/10 00:38:30;;;;;;;0.55;0.55;;;16.80;78.70;;;16.86;63.37;95065.25;4697982;30;20212;-79
2022/06/10 00:40:57;;;;;;;0.60;0.60;;;16.80;78.80;;;16.91;63.64;95076.75;4697375;30;20227;-79
2022/06/10 00:43:29;;;;;;;0.50;0.50;;;16.80;78.70;;;16.92;63.33;95082.91;4710946;30;20216;-79
2022/06/10 00:46:21;;;;;;;0.50;0.50;;;16.80;78.70;;;16.91;63.67;95082.06;4693001;30;20246;-78
2022/06/10 00:49:06;;;;;;;0.60;0.60;;;16.80;78.80;;;16.89;63.36;95078.81;4696137;30;20263;-78
2022/06/10 00:51:46;;;;;;;0.40;0.40;;;16.80;78.90;;;16.89;63.72;95078.81;4696143;30;20214;-79
2022/06/10 00:54:20;;;;;;;0.60;0.60;;;16.80;78.90;;;16.89;63.00;95086.78;4682254;30;20208;-78
2022/06/10 00:57:22;;;;;;;0.57;0.57;;;16.80;78.70;;;16.89;63.36;95091.28;4681448;30;20199;-79
2022/06/10 01:00:11;;;;;;;0.60;0.60;;;16.80;78.90;;;16.82;63.70;95091.38;4696008;30;20291;-78
2022/06/10 01:02:39;;;;;;;0.60;0.60;;;16.80;78.70;;;16.83;63.46;95094.84;4685634;30;20299;-79
2022/06/10 01:05:16;;;;;;;0.60;0.60;;;16.70;78.50;;;16.83;63.53;95092.97;4689591;30;20293;-77
2022/06/10 01:07:57;;;;;;;0.52;0.52;;;16.80;78.80;;;16.80;63.67;95077.56;4731113;30;20204;-79
2022/06/10 01:10:26;;;;;;;0.50;0.50;;;16.70;78.70;;;16.76;63.77;95095.75;4716814;30;20239;-78
2022/06/10 01:13:38;;;;;;;0.60;0.60;;;16.70;78.60;;;16.72;63.74;95097.22;4714718;30;20663;-77
2022/06/10 01:16:35;;;;;;;0.60;0.60;;;16.70;78.50;;;16.67;64.05;95083.84;4697866;30;20612;-78
2022/06/10 01:19:32;;;;;;;0.60;0.60;;;16.70;78.60;;;16.64;63.82;95089.59;4700519;30;20255;-77
2022/06/10 01:22:27;;;;;;;0.50;0.50;;;16.70;78.60;;;16.62;64.35;95094.31;4710475;30;20212;-78
2022/06/10 01:25:30;;;;;;;0.60;0.60;;;16.70;78.60;;;16.57;64.07;95097.63;4700833;30;20243;-77
2022/06/10 01:28:14;;;;;;;0.50;0.50;;;16.70;78.60;;;16.56;64.45;95089.91;4712212;30;20592;-78
2022/06/10 01:31:09;;;;;;;0.60;0.60;;;16.70;78.80;;;16.53;64.51;95103.59;4699074;30;20648;-78
2022/06/10 01:33:45;;;;;;;0.60;0.60;;;16.70;78.80;;;16.54;64.46;95098.09;4698358;30;20212;-78
2022/06/10 01:36:29;;;;;;;0.60;0.60;;;16.60;78.80;;;16.54;64.19;95105.22;4698765;30;20235;-78
2022/06/10 01:39:24;;;;;;;0.60;0.60;;;16.60;78.90;;;16.45;64.46;95083.53;4684597;30;20690;-77
2022/06/10 01:42:22;;;;;;;0.60;0.60;;;16.60;78.90;;;16.54;64.22;95100.75;4698984;30;20193;-78
2022/06/10 01:45:12;;;;;;;0.60;0.60;;;16.50;79.00;;;16.53;64.25;95107.06;4699419;30;20346;-78
2022/06/10 01:48:13;;;;;;;0.60;0.60;;;16.50;78.90;;;16.54;64.09;95105.22;4684843;30;20880;-79
2022/06/10 01:50:47;;;;;;;0.60;0.60;;;16.60;79.20;;;16.53;64.15;95103.59;4709033;30;20285;-78
2022/06/10 01:53:35;;;;;;;0.60;0.60;;;16.60;79.10;;;16.51;64.59;95097.72;4698615;30;20199;-79
2022/06/10 01:56:12;;;;;;;0.60;0.60;;;16.60;79.30;;;16.47;64.32;95106.09;4698553;30;20303;-78
2022/06/10 01:58:46;;;;;;;0.70;0.70;;;16.60;79.30;;;16.46;64.46;95106.34;4708404;30;20574;-79
2022/06/10 02:01:27;;;;;;;0.55;0.55;;;16.50;79.20;;;16.44;64.71;95108.38;4697536;30;20235;-78
2022/06/10 02:04:05;;;;;;;0.50;0.50;;;16.50;79.20;;;16.43;64.36;95106.78;4712869;30;20208;-78
2022/06/10 02:06:50;;;;;;;0.60;0.60;;;16.50;79.30;;;16.46;64.37;95115.06;4712381;30;20585;-78
2022/06/10 02:09:29;;;;;;;0.50;0.50;;;16.50;79.20;;;16.47;64.21;95119.34;4716240;30;20253;-77
2022/06/10 02:12:06;;;;;;;0.50;0.50;;;16.50;79.30;;;16.48;64.22;95120.16;4697959;30;20208;-78
2022/06/10 02:14:53;;;;;;;0.50;0.50;;;16.50;79.30;;;16.46;64.37;95125.66;4685577;30;20786;-78
2022/06/10 02:17:23;;;;;;;0.50;0.50;;;16.50;79.20;;;16.46;64.29;95122.22;4684184;30;20192;-78
2022/06/10 02:19:57;;;;;;;0.50;0.50;;;16.50;79.30;;;16.46;64.63;95122.22;4700767;30;20235;-79
2022/06/10 02:22:43;;;;;;;0.50;0.50;;;16.50;79.20;;;16.42;64.60;95121.84;4701249;30;20743;-78
2022/06/10 02:25:24;;;;;;;0.60;0.60;;;16.50;79.20;;;16.44;64.26;95122.44;4699425;30;20241;-78
2022/06/10 02:28:02;;;;;;;0.60;0.60;;;16.40;79.10;;;16.46;64.13;95130.16;4698772;30;20216;-79
2022/06/10 02:30:43;;;;;;;0.80;0.80;;;16.40;79.10;;;16.44;63.99;95133.03;4680656;30;20852;-79
2022/06/10 02:33:11;;;;;;;0.60;0.60;;;16.40;79.20;;;16.41;64.19;95130.81;4683852;30;20201;-78
2022/06/10 02:36:00;;;;;;;0.75;0.75;;;16.40;79.10;;;16.44;64.56;95142.81;4696983;30;20235;-79
2022/06/10 02:39:02;;;;;;;0.60;0.60;;;16.40;79.10;;;16.42;64.63;95150.19;4698247;30;20248;-79
2022/06/10 02:42:09;;;;;;;0.50;0.50;;;16.40;79.10;;;16.41;64.44;95143.25;4695415;30;20279;-78
2022/06/10 02:45:14;;;;;;;0.60;0.60;;;16.40;79.10;;;16.40;64.63;95145.09;4698483;30;20252;-79
2022/06/10 02:48:04;;;;;;;0.50;0.50;;;16.40;79.10;;;16.40;64.81;95139.78;4698743;30;20281;-78
2022/06/10 02:50:32;;;;;;;0.52;0.52;;;16.50;79.30;;;16.37;65.27;95152.66;4699046;30;20236;-78
2022/06/10 02:53:00;;;;;;;0.50;0.50;;;16.40;79.10;;;16.39;65.01;95140.81;4674791;30;20697;-78
2022/06/10 02:55:27;;;;;;;0.80;0.80;;;16.40;79.10;;;16.42;64.87;95150.19;4715446;30;20318;-78
2022/06/10 03:01:16;;;;;;;0.60;0.60;;;16.60;79.30;;;16.41;64.80;95159.94;4718861;30;20246;-78
2022/06/10 03:04:25;;;;;;;0.50;0.50;;;16.50;79.20;;;16.43;65.04;95159.72;4715248;30;20645;-78
2022/06/10 03:07:16;;;;;;;0.50;0.50;;;16.50;79.20;;;16.39;64.82;95169.94;4714075;30;20215;-78
2022/06/10 03:10:23;;;;;;;0.50;0.50;;;16.40;79.20;;;16.38;65.21;95175.47;4715463;30;20297;-78
2022/06/10 03:13:11;;;;;;;0.50;0.50;;;16.50;80.00;;;16.43;64.80;95178.25;4713573;30;20557;-77
2022/06/10 03:16:19;;;;;;;0.50;0.50;;;16.50;79.20;;;16.41;64.75;95178.47;4715142;30;20232;-79
2022/06/10 03:19:33;;;;;;;0.60;0.60;;;16.50;79.20;;;16.42;64.75;95189.91;4712533;30;20211;-77
2022/06/10 03:22:30;;;;;;;0.50;0.50;;;16.50;79.20;;;16.42;64.97;95189.91;4701184;30;20220;-80
2022/06/10 03:25:43;;;;;;;0.50;0.50;;;16.50;79.20;;;16.41;64.80;95191.72;4683305;30;20240;-80
2022/06/10 03:28:31;;;;;;;0.50;0.50;;;16.50;79.20;;;16.42;64.91;95193.34;4710438;30;20224;-79
2022/06/10 03:31:28;;;;;;;0.60;0.60;;;16.50;79.20;;;16.45;64.61;95200.03;4706204;30;20338;-81
2022/06/10 03:34:29;;;;;;;0.50;0.50;;;16.50;79.30;;;16.48;64.98;95202.25;4702659;30;20235;-80
2022/06/10 03:36:59;;;;;;;0.50;0.50;;;16.50;79.20;;;16.49;65.14;95202.00;4700862;30;20641;-79
2022/06/10 03:39:27;;;;;;;0.60;0.60;;;16.50;79.30;;;16.49;64.88;95203.88;4696666;30;20302;-80
2022/06/10 03:42:13;;;;;;;0.47;0.47;;;16.60;79.30;;;16.53;64.87;95205.03;4718088;30;20265;-80
2022/06/10 03:44:42;;;;;;;0.50;0.50;;;16.50;79.20;;;16.55;64.66;95208.28;4703679;30;20242;-80
2022/06/10 03:47:18;;;;;;;0.50;0.50;;;16.50;79.20;;;16.56;64.81;95204.56;4709776;30;20556;-80
2022/06/10 03:50:06;;;;;;;0.57;0.57;;;16.60;79.30;;;16.57;64.27;95219.44;4689385;30;20256;-80
2022/06/10 03:52:37;;;;;;;0.60;0.60;;;16.60;79.30;;;16.59;64.90;95220.03;4705334;30;20231;-81
2022/06/10 03:55:07;;;;;;;0.50;0.50;;;16.50;79.20;;;16.62;64.99;95230.19;4725761;30;20230;-79
2022/06/10 03:57:35;;;;;;;0.60;0.60;;;16.60;79.30;;;16.66;64.43;95238.47;4688113;30;20216;-80
2022/06/10 04:00:06;;;;;;;0.50;0.50;;;16.60;79.30;;;16.68;64.68;95235.63;4707957;30;20236;-79
2022/06/10 04:02:38;;;;;;;0.60;0.60;;;16.60;79.40;;;16.68;64.81;95236.41;4701567;30;20207;-80
2022/06/10 04:05:08;;;;;;;0.50;0.50;;;16.70;79.40;;;16.67;64.97;95236.66;4700588;30;20696;-80
2022/06/10 04:07:36;;;;;;;0.50;0.50;;;16.70;79.40;;;16.67;65.14;95234.00;4690042;30;20365;-82
2022/06/10 04:10:04;;;;;;;0.73;0.73;;;16.70;79.40;;;16.69;65.20;95237.25;4712740;30;20239;-80
2022/06/10 04:12:31;;;;;;;0.50;0.50;;;16.70;79.40;;;16.69;65.00;95237.25;4717656;30;20683;-82
2022/06/10 04:14:58;;;;;;;0.70;0.70;;;16.70;79.40;;;16.72;64.51;95242.09;4703054;30;20286;-81
2022/06/10 04:17:26;;;;;;;0.50;0.50;;;16.70;79.40;;;16.72;65.18;95242.09;4701554;30;20216;-82
2022/06/10 04:19:53;;;;;;;0.57;0.57;;;16.70;79.40;;;16.69;65.13;95237.25;4717698;30;20241;-81
2022/06/10 04:22:20;;;;;;;0.50;0.50;;;16.80;79.40;;;16.74;64.51;95240.81;4717539;30;20208;-82
2022/06/10 04:24:47;;;;;;;0.50;0.50;;;16.70;79.40;;;16.78;64.86;95249.97;4723951;30;20240;-81
2022/06/10 04:27:15;;;;;;;0.50;0.50;;;16.80;79.50;;;16.78;64.85;95242.03;4709345;30;20686;-82
2022/06/10 04:29:42;;;;;;;0.50;0.50;;;16.80;79.40;;;16.80;65.11;95250.53;4717474;30;20335;-81
2022/06/10 04:32:09;;;;;;;0.60;0.60;;;16.80;79.40;;;16.83;65.00;95253.78;4700664;30;20239;-82
2022/06/10 04:34:36;;;;;;;0.50;0.50;;;16.80;79.40;;;16.85;64.92;95255.16;4714014;30;20321;-81
2022/06/10 04:37:04;;;;;;;0.40;0.40;;;16.80;79.40;;;16.88;64.87;95261.84;4687576;30;20203;-81
2022/06/10 04:39:32;;;;;;;0.50;0.50;;;16.90;79.50;;;16.91;64.54;95267.53;4680517;30;20769;-81
2022/06/10 04:41:59;;;;;;;0.50;0.50;;;16.90;79.50;;;16.89;64.62;95264.28;4699783;30;20223;-82
2022/06/10 04:44:26;;;;;;;0.50;0.50;;;16.90;79.50;;;16.94;64.64;95275.06;4703297;30;20239;-82
2022/06/10 04:46:56;;;;;;;0.60;0.60;;;17.00;79.60;;;16.95;64.76;95268.75;4685647;30;20235;-82
2022/06/10 04:49:23;;;;;;;0.52;0.52;;;16.90;79.50;;;16.98;64.96;95269.31;4700037;30;20738;-81
2022/06/10 04:51:50;;;;;;;0.50;0.50;;;17.00;79.60;;;16.96;64.42;95274.84;4700693;30;20292;-81
2022/06/10 04:54:17;;;;;;;0.50;0.50;;;17.00;79.60;;;16.97;64.71;95271.16;4680363;30;20297;-82
2022/06/10 04:56:44;;;;;;;0.50;0.50;;;17.00;79.60;;;16.95;64.38;95275.88;4684288;30;20246;-82
2022/06/10 04:59:11;;;;;;;0.50;0.50;;;17.00;79.60;;;16.98;64.75;95280.75;4707212;30;20231;-81
2022/06/10 05:01:38;;;;;;;0.50;0.50;;;17.00;79.60;;;17.00;65.03;95281.31;4729841;30;20227;-81
2022/06/10 05:04:06;;;;;;;0.50;0.50;;;17.00;79.60;;;16.99;64.82;95279.72;4699000;30;20305;-82
2022/06/10 05:06:34;;;;;;;0.60;0.60;;;17.00;79.60;;;17.04;65.03;95287.78;4685167;30;20208;-82
2022/06/10 05:09:01;;;;;;;0.60;0.60;;;17.00;79.60;;;17.04;64.51;95289.63;4699079;30;20216;-81
2022/06/10 05:11:28;;;;;;;0.55;0.55;;;17.10;79.70;;;17.07;64.98;95289.19;4710412;30;20234;-82
2022/06/10 05:13:55;;;;;;;0.55;0.55;;;17.10;79.70;;;17.04;65.13;95287.78;4702622;30;20238;-81
2022/06/10 05:16:25;;;;;;;0.60;0.60;;;17.00;79.60;;;17.07;64.66;95291.84;4716646;30;20268;-82
2022/06/10 05:18:52;;;;;;;0.50;0.50;;;17.10;79.70;;;17.08;64.65;95293.47;4716449;30;20208;-81
2022/06/10 05:21:19;;;;;;;0.60;0.60;;;17.10;79.70;;;17.08;64.78;95296.91;4716903;30;20639;-82
2022/06/10 05:23:47;;;;;;;0.60;0.60;;;17.10;79.70;;;17.09;64.48;95298.53;4711377;30;20208;-82
2022/06/10 05:26:16;;;;;;;0.50;0.50;;;17.20;80.10;;;17.13;64.71;95306.84;4696514;30;20243;-81
2022/06/10 05:28:44;;;;;;;0.60;0.60;;;17.20;79.70;;;17.18;64.61;95314.94;4684911;30;20214;-82
2022/06/10 05:31:12;;;;;;;0.50;0.50;;;17.10;79.70;;;17.18;64.92;95306.19;4687219;30;20239;-78
2022/06/10 05:36:25;;;;;;;0.50;0.50;;;17.20;79.80;;;17.27;64.69;95328.69;4715668;30;20223;-82
2022/06/10 05:38:52;;;;;;;0.50;0.50;;;17.30;79.80;;;17.36;65.03;95326.56;4730750;30;20208;-81
2022/06/10 05:44:05;;;;;;;0.52;0.52;;;17.40;79.90;;;17.39;64.33;95324.25;4728779;30;20210;-82
2022/06/10 05:46:32;;;;;;;0.52;0.52;;;17.40;79.70;;;17.42;64.45;95331.75;4715949;30;20294;-82
2022/06/10 05:48:59;;;;;;;0.50;0.50;;;17.40;79.80;;;17.44;64.75;95331.53;4716003;30;20203;-81
2022/06/10 05:51:26;;;;;;;0.60;0.60;;;17.50;79.70;;;17.40;64.18;95320.56;4700105;30;20246;-81
2022/06/10 05:53:53;;;;;;;0.70;0.70;;;17.40;79.50;;;17.47;64.66;95330.25;4698657;30;20312;-82
2022/06/10 05:56:20;;;;;;;0.50;0.50;;;17.60;79.70;;;17.49;64.11;95338.81;4684235;30;20223;-81
2022/06/10 05:58:47;;;;;;;0.55;0.55;;;17.50;79.50;;;17.44;64.04;95340.31;4697285;30;20220;-82
2022/06/10 06:01:14;;;;;;;0.50;0.50;;;17.50;79.40;;;17.49;64.42;95336.97;4690406;30;20738;-80
2022/06/10 06:03:41;;;;;;;0.50;0.50;;;17.50;79.60;;;17.49;64.29;95334.31;4684173;30;20216;-82
2022/06/10 06:06:10;;;;;;;0.50;0.50;;;17.50;79.70;;;17.51;64.51;95339.41;4702546;30;20247;-82
2022/06/10 06:08:37;;;;;;;0.55;0.55;;;17.50;79.70;;;17.54;64.62;95345.06;4698527;30;20212;-81
2022/06/10 06:11:06;;;;;;;0.50;0.50;;;17.60;79.80;;;17.56;64.59;95344.84;4715606;30;20263;-83
2022/06/10 06:13:33;;;;;;;0.50;0.50;;;17.50;79.50;;;17.57;64.48;95346.47;4699574;30;20318;-80
2022/06/10 06:16:00;;;;;;;0.50;0.50;;;17.50;79.40;;;17.60;64.51;95343.34;4711205;30;20239;-80
2022/06/10 06:18:27;;;;;;;0.50;0.50;;;17.60;79.30;;;17.63;64.14;95345.56;4698552;30;20227;-80
2022/06/10 06:20:55;;;;;;;0.50;0.50;;;17.60;79.40;;;17.66;64.30;95355.69;4683915;30;20228;-80
2022/06/10 06:23:22;;;;;;;0.60;0.60;;;17.70;79.40;;;17.75;64.22;95356.22;4683990;30;20218;-79
2022/06/10 06:25:49;;;;;;;0.50;0.50;;;17.80;79.50;;;17.80;64.28;95358.16;4698298;30;20228;-77
2022/06/10 06:28:16;;;;;;;0.50;0.50;;;17.80;79.40;;;17.88;63.94;95361.34;4698165;30;20283;-78
2022/06/10 06:30:44;;;;;;;0.50;0.50;;;17.90;79.40;;;17.98;64.33;95373.25;4697615;30;20235;-79
2022/06/10 06:33:11;;;;;;;0.50;0.50;;;18.00;79.50;;;18.06;63.52;95368.41;4693759;30;20219;-81
2022/06/10 06:35:44;;;;;;;0.50;0.50;;;18.10;79.30;;;18.14;63.28;95367.31;4715341;30;20608;-80
2022/06/10 06:38:12;;;;;;;0.50;0.50;;;18.10;78.80;;;18.21;63.29;95372.50;4701155;30;20334;-77
2022/06/10 06:40:41;;;;;;;0.50;0.50;;;18.20;79.10;;;18.28;63.39;95364.44;4714412;30;20268;-77
2022/06/10 06:43:10;;;;;;;0.50;0.50;;;18.30;78.80;;;18.33;62.94;95370.66;4701706;30;20686;-80
2022/06/10 06:45:38;;;;;;;0.50;0.50;;;18.40;78.40;;;18.40;63.25;95379.34;4685294;30;20219;-79
2022/06/10 06:48:09;;;;;;;0.50;0.50;;;18.40;78.40;;;18.45;62.45;95378.66;4716168;30;20617;-80
2022/06/10 06:50:44;;;;;;;0.50;0.50;;;18.50;78.00;;;18.49;62.56;95379.00;4701211;30;20474;-79
2022/06/10 06:53:11;;;;;;;0.50;0.50;;;18.50;78.30;;;18.52;63.10;95381.22;4687236;30;20224;-80
2022/06/10 06:55:40;;;;;;;0.50;0.50;;;18.60;78.20;;;18.58;63.05;95384.78;4701710;30;20244;-79
2022/06/10 06:58:13;;;;;;;0.50;0.50;;;18.70;78.40;;;18.62;62.93;95393.91;4686917;30;20204;-79
2022/06/10 07:00:45;;;;;;;0.50;0.50;;;18.60;78.20;;;18.61;62.80;95390.44;4703790;30;20271;-78
2022/06/10 07:03:12;;;;;;;0.50;0.50;;;18.70;78.20;;;18.56;62.80;95385.81;4705364;30;20212;-79
2022/06/10 07:05:42;;;;;;;0.50;0.50;;;18.70;78.00;;;18.63;62.42;95396.34;4714339;30;20725;-76
2022/06/10 07:08:11;;;;;;;0.70;0.70;;;18.70;77.90;;;18.61;62.23;95398.41;4700907;30;20219;-76
2022/06/10 07:10:39;;;;;;;0.50;0.50;;;18.80;78.00;;;18.61;62.20;95394.94;4687123;30;20244;-76
2022/06/10 07:13:06;;;;;;;0.50;0.50;;;18.70;77.90;;;18.59;62.38;95392.53;4673058;30;20307;-76
2022/06/10 07:15:37;;;;;;;0.50;0.50;;;18.60;77.80;;;18.58;62.41;95401.53;4700418;30;20239;-79
2022/06/10 07:18:05;;;;;;;0.40;0.40;;;18.70;77.90;;;18.56;62.58;95396.44;4702386;30;20208;-79
2022/06/10 07:20:35;;;;;;;0.50;0.50;;;18.60;77.90;;;18.55;62.67;95400.16;4718432;30;20239;-79
2022/06/10 07:23:03;;;;;;;0.45;0.45;;;18.70;78.00;;;18.54;62.82;95406.50;4713686;30;20208;-79
2022/06/10 07:25:32;;;;;;;0.50;0.50;;;18.60;77.90;;;18.51;62.85;95401.63;4722207;30;20243;-76
2022/06/10 07:28:01;;;;;;;0.50;0.50;;;18.60;77.90;;;18.52;62.78;95403.25;4686785;30;20200;-78
2022/06/10 07:30:31;;;;;;;0.47;0.47;;;18.60;78.00;;;18.47;62.50;95405.78;4706422;30;20318;-79
2022/06/10 07:32:59;;;;;;;0.50;0.50;;;18.60;77.90;;;18.49;62.39;95408.22;4702869;30;20216;-76
2022/06/10 07:35:27;;;;;;;0.50;0.50;;;18.50;78.00;;;18.47;62.44;95411.09;4695157;30;20242;-78
2022/06/10 07:37:54;;;;;;;0.50;0.50;;;18.60;78.00;;;18.45;63.00;95413.19;4712229;30;20619;-76
2022/06/10 07:43:36;;;;;;;0.50;0.50;;;18.50;78.50;;;18.40;62.81;95413.84;4714079;30;20211;-79
2022/06/10 07:46:05;;;;;;;0.50;0.50;;;18.50;78.40;;;18.41;63.08;95414.69;4718317;30;20229;-80
2022/06/10 07:48:32;;;;;;;0.50;0.50;;;18.40;78.60;;;18.40;62.84;95413.84;4699248;30;20233;-78
2022/06/10 07:51:00;;;;;;;0.50;0.50;;;18.40;78.60;;;18.39;63.22;95414.91;4698132;30;20253;-80
2022/06/10 07:53:29;;;;;;;0.50;0.50;;;18.40;78.50;;;18.37;63.43;95411.69;4685082;30;20717;-80
2022/06/10 07:55:58;;;;;;;0.50;0.50;;;18.40;78.60;;;18.38;62.99;95425.75;4700742;30;20232;-80
2022/06/10 07:58:25;;;;;;;0.52;0.52;;;18.40;78.60;;;18.37;63.15;95422.28;4686146;30;20212;-79
2022/06/10 08:00:52;;;;;;;0.50;0.50;;;18.40;78.50;;;18.37;63.13;95424.13;4701167;30;20231;-77
2022/06/10 08:03:20;;;;;;;0.40;0.40;;;18.50;78.70;;;18.37;63.74;95426.78;4721329;30;20683;-78
2022/06/10 08:05:48;;;;;;;0.52;0.52;;;18.40;78.60;;;18.36;63.67;95427.84;4708694;30;20226;-77
2022/06/10 08:08:18;;;;;;;0.50;0.50;;;18.40;78.70;;;18.41;63.81;95427.97;4725825;30;20217;-77
2022/06/10 08:10:46;;;;;;;0.50;0.50;;;18.40;79.00;;;18.43;64.01;95423.25;4701923;30;20239;-78
2022/06/10 08:13:13;;;;;;;0.47;0.47;;;18.40;79.30;;;18.40;63.50;95411.19;4720888;30;20211;-78
2022/06/10 08:15:44;;;;;;;0.50;0.50;;;18.40;79.40;;;18.49;63.42;95430.28;4710223;30;20238;-77
2022/06/10 08:18:15;;;;;;;0.70;0.70;;;18.40;79.40;;;18.54;63.81;95427.75;4726075;30;20274;-77
2022/06/10 08:23:33;;;;;;;0.40;0.40;;;18.50;79.70;;;18.62;63.42;95441.75;4710592;30;20211;-77
2022/06/10 08:26:05;;;;;;;0.50;0.50;;;18.60;79.60;;;18.63;63.66;95433.53;4726100;30;20593;-77
2022/06/10 08:28:33;;;;;;;0.50;0.50;;;18.60;79.50;;;18.67;63.49;95440.00;4706970;30;20312;-77
2022/06/10 08:31:00;;;;;;;0.40;0.40;;;18.60;79.40;;;18.71;63.72;95437.69;4707112;30;20255;-78
2022/06/10 08:33:28;;;;;;;0.50;0.50;;;18.70;79.40;;;18.69;63.65;95435.28;4694165;30;20203;-78
2022/06/10 08:35:55;;;;;;;0.57;0.57;;;18.70;79.50;;;18.82;64.29;95442.22;4706443;30;20318;-77
2022/06/10 08:38:22;;;;;;;0.70;0.70;;;18.80;79.60;;;18.85;63.33;95443.59;4722995;30;20462;-78
2022/06/10 08:41:34;;;;;;;0.40;0.40;;;18.80;79.40;;;18.91;63.62;95450.69;4700522;30;20506;-77
2022/06/10 08:44:05;;;;;;;0.50;0.50;;;18.80;79.00;;;18.97;63.83;95447.09;4715923;30;20225;-77
2022/06/10 08:47:24;;;;;;;0.50;0.50;;;18.90;79.20;;;19.07;63.56;95453.69;4716968;30;20216;-77
2022/06/10 08:50:19;;;;;;;0.40;0.40;;;19.00;79.30;;;19.24;64.26;95467.06;4723189;30;20231;-78
2022/06/10 08:53:20;;;;;;;0.50;0.50;;;19.10;79.70;;;19.43;64.46;95463.25;4704239;30;20278;-78
2022/06/10 08:56:18;;;;;;;0.40;0.40;;;19.30;80.00;;;19.66;64.55;95466.91;4710795;30;20690;-78
2022/06/10 08:58:55;;;;;;;0.43;0.43;;;19.40;80.00;;;19.90;63.98;95467.66;4726017;30;20207;-78
2022/06/10 09:01:23;;;;;;;0.40;0.40;;;19.60;80.40;;;20.10;64.04;95467.25;4732554;30;20229;-80
2022/06/10 09:03:57;;;;;;;0.40;0.40;;;19.80;80.10;;;20.29;63.67;95467.06;4683850;30;20216;-80
2022/06/10 09:06:38;;;;;;;0.50;0.50;;;20.00;79.60;;;20.48;63.38;95472.97;4711135;30;20210;-80
2022/06/10 09:09:07;;;;;;;0.50;0.50;;;20.20;79.30;;;20.61;62.89;95477.97;4686319;30;20209;-79
2022/06/10 09:12:04;;;;;;;0.40;0.40;;;20.40;78.90;;;20.79;62.77;95484.16;4698559;30;20239;-79
2022/06/10 09:14:31;;;;;;;0.50;0.50;;;20.60;78.90;;;20.93;62.98;95487.31;4699267;30;20263;-79
2022/06/10 09:17:02;;;;;;;0.40;0.40;;;20.80;79.20;;;21.10;62.95;95482.78;4685147;30;20211;-80
2022/06/10 09:20:05;;;;;;;0.40;0.40;;;20.90;78.70;;;21.28;63.14;95487.03;4699989;30;21588;-80
2022/06/10 09:22:50;;;;;;;0.40;0.40;;;21.10;78.80;;;21.44;62.59;95490.72;4684619;30;20304;-79
2022/06/10 09:25:38;;;;;;;0.40;0.40;;;21.30;78.70;;;21.58;61.49;95485.03;4699210;30;20266;-80
2022/06/10 09:28:05;;;;;;;0.50;0.50;;;21.50;77.60;;;21.72;60.44;95496.19;4693720;30;20273;-80
2022/06/10 09:31:06;;;;;;;0.40;0.40;;;21.70;77.60;;;21.83;60.41;95489.91;4692846;30;20242;-80
2022/06/10 09:34:19;;;;;;;0.30;0.30;;;21.80;76.60;;;22.00;61.18;95491.72;4695181;30;20653;-80
2022/06/10 09:37:21;;;;;;;0.50;0.50;;;22.00;77.30;;;22.22;61.40;95483.66;4709506;30;20234;-80
2022/06/10 09:43:15;;;;;;;0.40;0.40;;;22.30;77.00;;;22.66;61.09;95490.78;4699263;30;20293;-80
2022/06/10 09:46:10;;;;;;;0.30;0.30;;;22.60;77.50;;;22.82;60.47;95489.84;4698974;30;20235;-79
2022/06/10 09:49:12;;;;;;;0.50;0.50;;;22.80;77.20;;;22.95;60.44;95485.13;4711592;30;20715;-78
2022/06/10 09:52:16;;;;;;;0.40;0.40;;;22.90;76.50;;;23.04;59.49;95491.63;4709632;30;20326;-80
2022/06/10 09:55:05;;;;;;;0.40;0.40;;;23.10;76.20;;;23.10;59.41;95495.94;4676209;30;20327;-79
2022/06/10 09:57:48;;;;;;;0.50;0.50;;;23.20;75.10;;;23.15;58.67;95495.19;4692235;30;20663;-79
2022/06/10 10:00:21;;;;;;;0.40;0.40;;;23.30;75.00;;;23.20;58.71;95494.44;4683777;30;20329;-80
2022/06/10 10:03:22;;;;;;;0.40;0.40;;;23.30;74.60;;;23.22;58.51;95494.97;4710598;30;20688;-80
2022/06/10 10:05:59;;;;;;;0.30;0.30;;;23.30;74.60;;;23.28;58.52;95493.97;4710126;30;20594;-80
2022/06/10 10:09:00;;;;;;;0.32;0.32;;;23.40;74.60;;;23.30;58.45;95500.66;4704307;30;20576;-80
2022/06/10 10:11:45;;;;;;;0.43;0.43;;;23.40;74.40;;;23.34;58.67;95501.75;4690589;30;20326;-80
2022/06/10 10:14:36;;;;;;;0.47;0.47;;;23.40;74.80;;;23.40;58.85;95494.56;4698123;30;20218;-79
2022/06/10 10:17:39;;;;;;;0.40;0.40;;;23.50;74.90;;;23.48;58.48;95494.06;4687215;30;20218;-80
2022/06/10 10:20:50;;;;;;;0.40;0.40;;;23.50;74.60;;;23.58;58.08;95492.50;4698380;30;21904;-80
2022/06/10 10:23:25;;;;;;;0.40;0.40;;;23.60;74.10;;;23.64;57.57;95499.50;4704751;30;20216;-80
2022/06/10 10:25:53;;;;;;;0.50;0.50;;;23.70;73.60;;;23.74;57.74;95488.03;4697750;30;20239;-79
2022/06/10 10:28:24;;;;;;;0.50;0.50;;;23.80;74.00;;;23.80;56.92;95489.66;4710789;30;20690;-80
2022/06/10 10:31:15;;;;;;;0.40;0.40;;;23.90;73.00;;;23.88;56.53;95494.53;4711562;30;20247;-79
2022/06/10 10:33:44;;;;;;;0.50;0.50;;;23.90;72.70;;;23.98;56.32;95496.47;4711219;30;20674;-80
2022/06/10 10:36:27;;;;;;;0.30;0.30;;;24.10;72.80;;;24.10;56.13;95509.66;4696973;30;20230;-80
2022/06/10 10:38:55;;;;;;;0.50;0.50;;;24.10;72.60;;;24.22;56.50;95496.81;4708821;30;20212;-79
2022/06/10 10:41:34;;;;;;;0.40;0.40;;;24.30;73.30;;;24.43;56.18;95503.03;4698255;30;20576;-80
2022/06/10 10:44:06;;;;;;;0.30;0.30;;;24.40;72.20;;;24.59;55.57;95498.47;4682269;30;20213;-79
2022/06/10 10:46:54;;;;;;;0.30;0.30;;;24.60;71.90;;;24.76;55.67;95498.25;4689389;30;20266;-79
2022/06/10 10:49:28;;;;;;;0.40;0.40;;;24.80;72.10;;;24.98;55.20;95504.44;4692979;30;20320;-79
2022/06/10 10:51:56;;;;;;;0.30;0.30;;;24.90;71.50;;;25.10;55.21;95503.09;4693504;30;20716;-79
2022/06/10 10:54:30;;;;;;;0.35;0.35;;;25.10;71.50;;;25.22;54.30;95502.03;4687577;30;20243;-79
2022/06/10 10:56:59;;;;;;;0.30;0.30;;;25.20;70.00;;;25.30;54.21;95496.09;4673762;30;20228;-78
2022/06/10 10:59:39;;;;;;;0.35;0.35;;;25.40;70.90;;;25.35;52.96;95504.16;4691563;30;20317;-78
2022/06/10 11:02:25;;;;;;;0.30;0.30;;;25.50;69.30;;;25.33;52.92;95500.09;4698484;30;20210;-79
2022/06/10 11:05:20;;;;;;;0.30;0.30;;;25.50;69.60;;;25.31;53.37;95511.13;4691717;30;20241;-78
2022/06/10 11:08:12;;;;;;;0.30;0.30;;;25.60;69.40;;;25.36;53.33;95502.25;4692614;30;20679;-78
2022/06/10 11:10:48;;;;;;;0.30;0.30;;;25.60;69.20;;;25.42;53.29;95495.84;4687489;30;20232;-79
2022/06/10 11:13:34;;;;;;;0.30;0.30;;;25.60;68.80;;;25.47;53.41;95498.50;4690072;30;20242;-78
2022/06/10 11:16:31;;;;;;;0.40;0.40;;;25.60;69.40;;;25.48;52.82;95500.09;4687255;30;20245;-78
2022/06/10 11:19:31;;;;;;;0.40;0.40;;;25.70;68.90;;;25.49;52.74;95500.94;4693492;30;21733;-78